Time;durP1;ratioP1;P1;durP2;ratioP2;P2;SDS_P1;SDS_P2;PMS_P1;PMS_P2;Temp;Humidity;BMP_temperature;BMP_pressure;BME280_temperature;BME280_humidity;BME280_pressure;Samples;Min_cycle;Max_cycle;Signal;HPM_P1;HPM_P2
2022/01/18 00:04:34;;;;;;;;;;;3.70;99.90;;;2.62;100.00;97220.03;10441393;28;1834;-76
2022/01/18 00:09:38;;;;;;;;;;;3.70;99.90;;;2.59;100.00;97216.94;10436509;28;1973;-74
2022/01/18 00:14:55;;;;;;;;;;;3.70;99.90;;;2.64;100.00;97218.00;10432078;28;2109;-75
2022/01/18 00:19:58;;;;;;;;;;;3.70;99.90;;;2.60;100.00;97227.34;10430981;28;1846;-74
2022/01/18 00:25:02;;;;;;;;;;;3.60;99.90;;;2.49;100.00;97230.53;10437943;28;1890;-76
2022/01/18 00:30:20;;;;;;;;;;;3.60;99.90;;;2.42;100.00;97245.53;10449747;28;1910;-76
2022/01/18 00:35:32;;;;;;;;;;;3.50;99.90;;;2.32;100.00;97240.53;10433781;28;1838;-76
2022/01/18 00:40:35;;;;;;;;;;;3.40;99.90;;;2.14;100.00;97254.16;10426043;28;2081;-76
2022/01/18 00:45:38;;;;;;;;;;;3.30;99.90;;;2.05;100.00;97259.75;10439303;28;1826;-77
2022/01/18 00:50:44;;;;;;;;;;;3.20;99.90;;;1.95;100.00;97259.22;10434171;28;1918;-77
2022/01/18 00:56:00;;;;;;;;;;;3.10;99.90;;;2.01;100.00;97267.25;10429254;28;2086;-76
2022/01/18 01:01:03;;;;;;;;;;;3.10;99.90;;;1.96;100.00;97284.72;10444425;28;1910;-76
2022/01/18 01:06:07;;;;;;;;;;;3.10;99.90;;;1.91;100.00;97279.97;10435775;28;1893;-75
2022/01/18 01:11:10;;;;;;;;;;;3.00;99.90;;;1.95;100.00;97286.53;10432724;28;1906;-77
2022/01/18 01:16:37;;;;;;;;;;;3.00;99.90;;;1.92;100.00;97292.22;10422259;28;1955;-78
2022/01/18 01:43:17;;;;;;;;;;;3.20;99.90;;;2.17;100.00;97312.19;10441265;28;1895;-76
2022/01/18 01:48:35;;;;;;;;;;;3.20;99.90;;;2.23;100.00;97320.38;10442360;28;1910;-77
2022/01/18 01:53:38;;;;;;;;;;;3.60;99.90;;;2.20;100.00;97310.16;10442220;28;1902;-77
2022/01/18 01:58:42;;;;;;;;;;;3.30;99.90;;;2.17;100.00;97303.41;10436868;28;1838;-76
2022/01/18 02:03:46;;;;;;;;;;;3.30;99.90;;;2.20;100.00;97303.03;10436215;28;1834;-77
2022/01/18 02:08:51;;;;;;;;;;;3.30;99.90;;;2.22;100.00;97286.91;10437982;28;1977;-77
2022/01/18 02:13:56;;;;;;;;;;;3.30;99.90;;;2.25;100.00;97292.69;10437636;28;1885;-76
2022/01/18 02:24:22;;;;;;;;;;;3.20;99.90;;;2.10;100.00;97291.84;10437422;28;1802;-75
2022/01/18 02:29:26;;;;;;;;;;;3.20;99.90;;;2.11;100.00;97286.38;10434788;28;1902;-75
2022/01/18 02:34:29;;;;;;;;;;;3.20;99.90;;;2.13;100.00;97268.44;10436251;28;1893;-76
2022/01/18 02:39:32;;;;;;;;;;;3.20;99.90;;;2.08;100.00;97270.00;10428529;28;1941;-76
2022/01/18 02:44:36;;;;;;;;;;;3.20;99.90;;;2.11;100.00;97274.94;10433662;28;1823;-75
2022/01/18 02:49:39;;;;;;;;;;;3.20;99.90;;;2.11;100.00;97270.47;10430103;28;1910;-77
2022/01/18 02:54:43;;;;;;;;;;;3.20;99.90;;;2.09;100.00;97276.94;10450980;28;1951;-77
2022/01/18 02:59:49;;;;;;;;;;;3.20;99.90;;;2.23;100.00;97304.47;10434830;28;1841;-76
2022/01/18 03:04:52;;;;;;;;;;;3.20;99.90;;;2.24;100.00;97295.53;10437340;28;1909;-75
2022/01/18 03:09:55;;;;;;;;;;;3.30;99.90;;;2.27;100.00;97292.50;10432157;28;1989;-75
2022/01/18 03:14:58;;;;;;;;;;;3.30;99.90;;;2.27;100.00;97308.41;10438177;28;1981;-75
2022/01/18 03:20:03;;;;;;;;;;;3.30;99.90;;;2.19;100.00;97308.50;10434812;28;1787;-76
2022/01/18 03:25:25;;;;;;;;;;;3.20;99.90;;;2.14;100.00;97296.63;10433582;28;2005;-76
2022/01/18 03:30:28;;;;;;;;;;;3.40;99.90;;;2.13;100.00;97300.28;10438780;28;1973;-76
2022/01/18 03:35:31;;;;;;;;;;;3.20;99.90;;;2.17;100.00;97301.56;10460551;28;1818;-77
2022/01/18 03:40:34;;;;;;;;;;;3.20;99.90;;;2.20;100.00;97310.16;10440142;28;1836;-77
2022/01/18 03:45:41;;;;;;;;;;;3.20;99.90;;;2.16;100.00;97305.22;10441377;28;2010;-78
2022/01/18 03:50:43;;;;;;;;;;;3.20;99.90;;;2.25;100.00;97305.13;10436931;28;1906;-76
2022/01/18 03:55:46;;;;;;;;;;;3.20;99.90;;;2.16;100.00;97307.03;10427137;28;1822;-77
2022/01/18 04:00:50;;;;;;;;;;;3.30;99.90;;;2.10;100.00;97311.28;10458084;28;1977;-76
2022/01/18 04:05:56;;;;;;;;;;;3.20;99.90;;;2.16;100.00;97321.16;10428273;28;1842;-77
2022/01/18 04:10:59;;;;;;;;;;;3.30;99.90;;;2.10;100.00;97316.56;10470887;28;1910;-76
2022/01/18 04:16:02;;;;;;;;;;;3.10;99.90;;;2.22;100.00;97318.75;10434035;28;1858;-76
2022/01/18 04:31:48;;;;;;;;;;;3.20;99.90;;;2.19;100.00;97329.75;10430913;28;2053;-77
2022/01/18 04:36:52;;;;;;;;;;;3.20;99.90;;;2.19;100.00;97329.75;10426392;28;1953;-77
2022/01/18 04:41:56;;;;;;;;;;;3.20;99.90;;;2.15;100.00;97338.03;10432861;28;1838;-77
2022/01/18 04:52:19;;;;;;;;;;;3.20;99.90;;;1.83;100.00;97349.81;10449003;28;1910;-77
2022/01/18 05:02:42;;;;;;;;;;;2.90;99.90;;;1.43;100.00;97356.28;10428659;28;1779;-77
2022/01/18 05:07:47;;;;;;;;;;;2.70;99.90;;;1.24;100.00;97351.44;10433425;28;1877;-77
2022/01/18 05:12:53;;;;;;;;;;;2.60;99.90;;;1.17;100.00;97353.16;10431135;28;1975;-76
2022/01/18 05:18:55;;;;;;;;;;;2.40;99.90;;;1.06;100.00;97354.38;10454066;28;1899;-78
2022/01/18 05:23:32;;;;;;;;;;;2.40;99.90;;;0.94;100.00;97350.47;10459981;28;1842;-77
2022/01/18 05:28:35;;;;;;;;;;;2.40;99.90;;;0.88;100.00;97353.81;10441441;28;1826;-76
2022/01/18 05:33:40;;;;;;;;;;;2.20;99.90;;;0.80;100.00;97357.34;10443304;28;1910;-76
2022/01/18 05:38:43;;;;;;;;;;;2.00;99.90;;;0.76;100.00;97361.31;10438238;28;1890;-77
2022/01/18 05:43:46;;;;;;;;;;;2.00;99.90;;;0.68;100.00;97362.19;10443981;28;2135;-77
2022/01/18 05:48:50;;;;;;;;;;;2.20;99.90;;;0.67;100.00;97351.78;10437751;28;1921;-77
2022/01/18 05:53:53;;;;;;;;;;;2.00;99.90;;;0.70;100.00;97359.38;10440622;28;2008;-77
2022/01/18 05:58:59;;;;;;;;;;;1.90;99.90;;;0.66;100.00;97366.00;10440731;28;2033;-76
2022/01/18 06:04:12;;;;;;;;;;;1.90;99.90;;;0.63;100.00;97364.53;10459553;28;1925;-79
2022/01/18 06:09:15;;;;;;;;;;;1.80;99.90;;;0.58;100.00;97366.06;10445156;28;2236;-78
2022/01/18 06:14:19;;;;;;;;;;;1.80;99.90;;;0.58;100.00;97371.34;10439022;28;1783;-77
2022/01/18 06:19:22;;;;;;;;;;;1.80;99.90;;;0.52;100.00;97381.63;10437544;28;1857;-74
2022/01/18 06:24:25;;;;;;;;;;;1.80;99.90;;;0.64;100.00;97381.25;10437877;28;1942;-75
2022/01/18 06:29:41;;;;;;;;;;;1.80;99.90;;;0.85;100.00;97394.72;10431570;28;1924;-74
2022/01/18 06:34:44;;;;;;;;;;;1.90;99.90;;;1.11;100.00;97391.75;10434818;28;1810;-74
2022/01/18 06:39:47;;;;;;;;;;;2.10;99.90;;;1.30;100.00;97403.75;10430349;28;1820;-75
2022/01/18 06:44:50;;;;;;;;;;;2.30;99.90;;;1.37;100.00;97409.97;10445665;28;1833;-74
2022/01/18 06:49:53;;;;;;;;;;;2.40;99.90;;;1.44;100.00;97423.34;10431747;28;1941;-75
2022/01/18 06:54:57;;;;;;;;;;;2.50;99.90;;;1.55;100.00;97434.38;10438365;28;1842;-74
2022/01/18 07:00:00;;;;;;;;;;;2.60;99.90;;;1.59;100.00;97446.28;10435648;28;1939;-74
2022/01/18 07:05:03;;;;;;;;;;;2.60;99.90;;;1.61;100.00;97449.56;10437837;28;1818;-73
2022/01/18 07:10:06;;;;;;;;;;;2.60;99.90;;;1.58;100.00;97454.38;10432363;28;2104;-75
2022/01/18 07:15:09;;;;;;;;;;;2.70;99.90;;;1.55;100.00;97450.28;10430018;28;1822;-74
2022/01/18 07:20:13;;;;;;;;;;;2.70;99.90;;;1.59;100.00;97462.19;10442821;28;1791;-74
2022/01/18 07:25:18;;;;;;;;;;;2.60;99.90;;;1.55;100.00;97460.88;10437123;28;1815;-74
2022/01/18 07:30:21;;;;;;;;;;;2.70;99.90;;;1.65;100.00;97465.94;10432329;28;1985;-76
2022/01/18 07:35:26;;;;;;;;;;;2.60;99.90;;;1.68;100.00;97465.59;10435071;28;2029;-76
2022/01/18 07:40:29;;;;;;;;;;;2.70;99.90;;;1.67;100.00;97474.56;10428106;28;2058;-75
2022/01/18 07:45:32;;;;;;;;;;;2.90;99.90;;;1.86;100.00;97483.88;10433292;28;1858;-75
2022/01/18 07:50:35;;;;;;;;;;;2.80;99.90;;;1.97;100.00;97499.34;10457639;28;2040;-76
2022/01/18 07:55:39;;;;;;;;;;;2.90;99.90;;;2.13;100.00;97493.13;10456297;28;1832;-76
2022/01/18 08:00:42;;;;;;;;;;;3.00;99.90;;;2.33;100.00;97506.72;10433674;28;1849;-76
2022/01/18 08:05:47;;;;;;;;;;;3.10;99.90;;;2.46;100.00;97500.78;10430029;28;1848;-76
2022/01/18 08:10:50;;;;;;;;;;;3.30;99.90;;;2.58;100.00;97505.47;10444717;28;1985;-75
2022/01/18 08:15:59;;;;;;;;;;;3.40;99.90;;;2.63;100.00;97496.97;10450245;28;1866;-74
2022/01/18 08:21:03;;;;;;;;;;;3.50;99.90;;;2.66;100.00;97497.44;10442644;28;1899;-75
2022/01/18 08:26:06;;;;;;;;;;;3.60;99.90;;;2.84;100.00;97488.28;10456624;28;1919;-76
2022/01/18 08:31:09;;;;;;;;;;;3.60;99.90;;;3.05;100.00;97491.03;10446256;28;1975;-74
2022/01/18 08:36:12;;;;;;;;;;;3.80;99.90;;;3.35;100.00;97491.00;10435653;28;2010;-75
2022/01/18 08:41:15;;;;;;;;;;;4.00;99.90;;;3.53;100.00;97496.75;10437443;28;1785;-74
2022/01/18 08:46:19;;;;;;;;;;;4.30;99.90;;;3.67;100.00;97490.56;10426710;28;1884;-73
2022/01/18 08:51:22;;;;;;;;;;;4.50;99.90;;;3.78;100.00;97487.41;10433440;28;1918;-74
2022/01/18 08:56:26;;;;;;;;;;;4.70;99.90;;;3.72;100.00;97498.81;10431364;28;1795;-74
2022/01/18 09:01:49;;;;;;;;;;;4.70;99.90;;;3.48;98.93;97507.13;10432716;28;1796;-73
2022/01/18 09:06:53;;;;;;;;;;;4.60;99.90;;;3.11;99.18;97505.41;10433752;28;1947;-75
2022/01/18 09:11:56;;;;;;;;;;;4.50;99.90;;;3.11;99.73;97511.53;10431048;28;1985;-75
2022/01/18 09:16:59;;;;;;;;;;;4.20;99.90;;;3.08;100.00;97517.25;10428196;28;1885;-74
2022/01/18 09:22:03;;;;;;;;;;;4.10;99.90;;;3.03;100.00;97514.31;10434801;28;1885;-75
2022/01/18 09:27:06;;;;;;;;;;;4.10;99.90;;;2.71;100.00;97532.22;10433160;28;1841;-73
2022/01/18 09:32:10;;;;;;;;;;;3.90;99.90;;;2.74;100.00;97531.06;10430660;28;1983;-74
2022/01/18 09:37:13;;;;;;;;;;;3.80;99.90;;;2.74;100.00;97531.06;10430817;28;1837;-74
2022/01/18 09:42:17;;;;;;;;;;;3.80;99.90;;;2.92;100.00;97533.34;10428324;28;1993;-75
2022/01/18 09:47:22;;;;;;;;;;;3.90;99.90;;;2.82;100.00;97536.28;10427388;28;1812;-74
2022/01/18 09:52:26;;;;;;;;;;;3.90;99.90;;;2.53;100.00;97534.38;10430879;28;1922;-74
2022/01/18 09:57:30;;;;;;;;;;;3.80;99.90;;;2.57;100.00;97546.31;10438938;28;1821;-74
2022/01/18 10:02:33;;;;;;;;;;;3.70;99.90;;;2.56;100.00;97544.66;10439665;28;1816;-75
2022/01/18 10:07:36;;;;;;;;;;;3.60;99.90;;;2.81;100.00;97534.63;10441887;28;2037;-74
2022/01/18 10:12:39;;;;;;;;;;;3.70;99.90;;;2.69;100.00;97522.81;10438125;28;1918;-76
2022/01/18 10:17:43;;;;;;;;;;;3.70;99.90;;;2.93;100.00;97529.72;10442526;28;2006;-74
2022/01/18 10:22:53;;;;;;;;;;;3.80;99.90;;;3.30;100.00;97517.31;10443147;28;1935;-75
2022/01/18 10:27:56;;;;;;;;;;;4.10;99.90;;;3.42;100.00;97515.84;10447679;28;1864;-76
2022/01/18 10:32:59;;;;;;;;;;;4.30;99.90;;;3.27;100.00;97510.53;10439939;28;1906;-75
2022/01/18 10:38:03;;;;;;;;;;;4.40;99.90;;;3.36;99.57;97500.63;10438267;28;1911;-78
2022/01/18 10:43:07;;;;;;;;;;;4.50;99.90;;;3.55;100.00;97499.22;10434180;28;1909;-75
2022/01/18 10:48:10;;;;;;;;;;;4.50;99.90;;;3.98;96.89;97481.47;10440360;28;1868;-76
2022/01/18 10:53:13;;;;;;;;;;;4.70;99.90;;;3.87;96.41;97479.31;10438805;28;1921;-77
2022/01/18 10:58:17;;;;;;;;;;;4.90;99.90;;;4.27;95.37;97468.03;10440719;28;1930;-77
2022/01/18 11:03:20;;;;;;;;;;;5.00;99.90;;;4.25;93.79;97446.09;10435393;28;1911;-76
2022/01/18 11:08:23;;;;;;;;;;;5.10;99.90;;;4.06;90.01;97452.06;10435077;28;2159;-76
2022/01/18 11:13:34;;;;;;;;;;;5.20;99.90;;;4.13;87.61;97452.94;10432709;28;1906;-77
2022/01/18 11:18:37;;;;;;;;;;;5.20;99.90;;;4.13;87.16;97442.28;10434768;28;1919;-77
2022/01/18 11:23:40;;;;;;;;;;;5.20;99.90;;;4.19;82.95;97428.22;10436154;28;1884;-76
2022/01/18 11:28:43;;;;;;;;;;;5.20;99.90;;;3.84;85.21;97426.50;10436169;28;1551;-77
2022/01/18 11:33:47;;;;;;;;;;;5.00;99.90;;;4.32;87.21;97424.84;10438425;28;1902;-76
2022/01/18 11:38:50;;;;;;;;;;;5.10;99.90;;;4.07;83.42;97424.44;10435773;28;1816;-77
2022/01/18 11:43:55;;;;;;;;;;;5.10;99.90;;;4.02;81.34;97424.22;10437074;28;1801;-76
2022/01/18 11:48:59;;;;;;;;;;;4.90;99.90;;;3.91;84.30;97422.06;10438924;28;1916;-77
2022/01/18 11:54:17;;;;;;;;;;;5.00;99.90;;;3.99;82.64;97429.91;10437245;28;1975;-78
2022/01/18 11:59:21;;;;;;;;;;;4.90;99.90;;;4.05;82.63;97413.16;10437977;28;1847;-77
2022/01/18 12:04:24;;;;;;;;;;;4.90;99.90;;;4.07;80.98;97416.44;10440071;28;1033;-76
2022/01/18 12:09:27;;;;;;;;;;;5.00;99.90;;;4.00;84.53;97411.06;10431500;28;2202;-78
2022/01/18 12:14:30;;;;;;;;;;;5.60;99.90;;;3.95;83.78;97407.38;10436662;28;2020;-76
2022/01/18 12:19:33;;;;;;;;;;;5.10;99.90;;;4.24;81.63;97411.69;10439527;28;1832;-75
2022/01/18 12:24:37;;;;;;;;;;;5.20;99.90;;;4.19;82.40;97401.59;10427023;28;1859;-75
2022/01/18 12:30:01;;;;;;;;;;;5.30;99.90;;;4.17;80.07;97395.66;10449562;28;1915;-76
2022/01/18 12:35:04;;;;;;;;;;;5.30;99.90;;;3.85;81.92;97391.72;10434215;28;1918;-76
2022/01/18 12:40:08;;;;;;;;;;;5.20;99.90;;;4.10;81.23;97389.47;10425851;28;1769;-75
2022/01/18 12:45:11;;;;;;;;;;;5.10;99.90;;;4.15;78.94;97386.22;10434139;28;1626;-76
2022/01/18 12:50:15;;;;;;;;;;;5.10;99.90;;;4.09;78.80;97379.84;10430463;28;1812;-77
2022/01/18 12:55:18;;;;;;;;;;;5.10;99.90;;;4.05;80.55;97392.69;10430328;28;1987;-76
2022/01/18 13:00:21;;;;;;;;;;;5.10;99.90;;;4.13;79.54;97382.94;10426739;28;1804;-75
2022/01/18 13:05:25;;;;;;;;;;;5.10;99.90;;;3.92;79.22;97392.59;10438742;28;1974;-75
2022/01/18 13:10:28;;;;;;;;;;;5.00;99.90;;;3.67;80.32;97394.81;10437586;28;2050;-75
2022/01/18 13:15:35;;;;;;;;;;;4.80;99.90;;;3.72;80.92;97391.59;10439096;28;1914;-76
2022/01/18 13:26:01;;;;;;;;;;;4.80;99.90;;;3.65;79.85;97386.22;10450026;28;1825;-76
2022/01/18 13:31:04;;;;;;;;;;;4.70;99.90;;;3.69;77.75;97387.50;10441036;28;1895;-76
2022/01/18 13:36:07;;;;;;;;;;;4.80;99.90;;;3.74;76.24;97386.91;10447936;28;1954;-76
2022/01/18 13:41:15;;;;;;;;;;;4.80;99.90;;;3.72;76.74;97381.78;10470311;28;1830;-77
2022/01/18 13:46:18;;;;;;;;;;;4.80;99.90;;;3.93;75.36;97377.44;10445086;28;1985;-76
2022/01/18 13:51:21;;;;;;;;;;;4.80;99.90;;;3.65;75.10;97374.75;10455401;28;1971;-76
2022/01/18 13:56:26;;;;;;;;;;;4.80;99.90;;;3.70;74.58;97385.66;10441649;28;1969;-75
2022/01/18 14:01:29;;;;;;;;;;;4.80;99.90;;;3.57;74.13;97373.06;10438250;28;1810;-77
2022/01/18 14:06:33;;;;;;;;;;;4.70;99.90;;;3.46;74.36;97365.59;10469861;28;1862;-77
2022/01/18 14:11:36;;;;;;;;;;;4.70;99.90;;;3.82;73.77;97369.97;10443108;28;1931;-78
2022/01/18 14:16:40;;;;;;;;;;;4.70;99.90;;;3.84;72.34;97367.97;10443280;28;1854;-77
2022/01/18 14:21:43;;;;;;;;;;;4.80;99.90;;;3.78;72.48;97378.34;10470238;28;1498;-76
2022/01/18 14:26:46;;;;;;;;;;;4.80;99.90;;;3.62;72.07;97383.94;10457619;28;1910;-78
2022/01/18 14:31:50;;;;;;;;;;;4.70;99.90;;;3.49;73.23;97376.66;10440549;28;1972;-77
2022/01/18 14:36:55;;;;;;;;;;;4.60;99.90;;;3.45;73.68;97369.25;10439191;28;1858;-77
2022/01/18 14:41:58;;;;;;;;;;;4.50;99.90;;;3.38;73.14;97379.81;10450718;28;1873;-76
2022/01/18 14:52:18;;;;;;;;;;;4.40;99.90;;;3.34;73.32;97369.75;10444995;28;1918;-79
2022/01/18 14:57:23;;;;;;;;;;;4.50;99.90;;;3.00;72.91;97379.19;10440608;28;1806;-80
2022/01/18 15:02:33;;;;;;;;;;;4.30;99.90;;;2.77;74.31;97373.19;10444457;28;1858;-79
2022/01/18 15:07:42;;;;;;;;;;;4.20;99.90;;;2.71;73.57;97374.75;10445222;28;1818;-78
2022/01/18 15:12:45;;;;;;;;;;;3.90;99.90;;;2.53;75.16;97372.47;10441332;28;1977;-79
2022/01/18 15:17:48;;;;;;;;;;;3.80;99.90;;;2.56;77.19;97369.47;10447279;28;1803;-79
2022/01/18 15:22:52;;;;;;;;;;;3.70;99.90;;;2.42;76.81;97372.94;10447171;28;1881;-77
2022/01/18 15:28:16;;;;;;;;;;;3.70;99.90;;;2.44;76.76;97365.59;10439877;28;1978;-78
2022/01/18 15:33:20;;;;;;;;;;;3.60;99.90;;;2.46;76.82;97374.22;10462046;28;1987;-79
2022/01/18 15:38:23;;;;;;;;;;;3.60;99.90;;;2.51;77.00;97366.53;10453621;28;1889;-79
2022/01/18 15:43:26;;;;;;;;;;;3.60;99.90;;;2.51;77.11;97377.13;10462082;28;1459;-79
2022/01/18 15:48:29;;;;;;;;;;;3.60;99.90;;;2.50;76.88;97366.72;10460070;28;1841;-79
2022/01/18 15:53:33;;;;;;;;;;;3.60;99.90;;;2.42;77.48;97373.75;10448763;28;1910;-79
2022/01/18 15:58:37;;;;;;;;;;;3.60;99.90;;;2.41;77.32;97368.63;10482971;28;1700;-80
2022/01/18 16:03:41;;;;;;;;;;;3.60;99.90;;;2.25;77.67;97376.78;10437668;28;1859;-79
2022/01/18 16:08:44;;;;;;;;;;;3.40;99.90;;;1.99;78.38;97366.59;10441379;28;1917;-79
2022/01/18 16:13:47;;;;;;;;;;;3.30;99.90;;;1.79;79.88;97360.97;10452420;28;2040;-78
2022/01/18 16:18:51;;;;;;;;;;;3.10;99.90;;;1.70;80.10;97368.16;10440411;28;2037;-79
2022/01/18 16:23:54;;;;;;;;;;;3.00;99.90;;;1.73;79.76;97386.38;10441844;28;2041;-80
2022/01/18 16:28:57;;;;;;;;;;;3.00;99.90;;;1.88;79.92;97386.41;10448243;28;1800;-79
2022/01/18 16:34:00;;;;;;;;;;;3.00;99.90;;;1.98;79.66;97384.31;10474589;28;1946;-79
2022/01/18 16:39:04;;;;;;;;;;;3.00;99.90;;;1.97;78.73;97384.47;10478390;28;1719;-79
2022/01/18 16:44:07;;;;;;;;;;;3.10;99.90;;;1.92;78.18;97382.41;10466115;28;1867;-79
2022/01/18 16:49:10;;;;;;;;;;;3.10;99.90;;;1.98;79.16;97376.38;10457502;28;1842;-77
2022/01/18 16:54:14;;;;;;;;;;;3.10;99.90;;;2.00;78.26;97384.16;10430861;28;1914;-76
2022/01/18 16:59:17;;;;;;;;;;;3.20;99.90;;;1.88;79.55;97381.09;10434627;28;1894;-78
2022/01/18 17:04:20;;;;;;;;;;;3.10;99.90;;;1.77;79.61;97384.16;10438822;28;1852;-78
2022/01/18 17:09:24;;;;;;;;;;;3.00;99.90;;;1.62;81.54;97379.66;10442539;28;1684;-75
2022/01/18 17:14:27;;;;;;;;;;;2.80;99.90;;;1.57;83.58;97378.53;10440094;28;1906;-76
2022/01/18 17:19:31;;;;;;;;;;;2.70;99.90;;;1.48;83.78;97369.84;10447338;28;1813;-76
2022/01/18 17:24:35;;;;;;;;;;;2.60;99.90;;;1.35;86.58;97383.66;10460912;28;1888;-76
2022/01/18 17:29:38;;;;;;;;;;;2.50;99.90;;;1.26;87.36;97375.94;10449908;28;2245;-73
2022/01/18 17:34:42;;;;;;;;;;;2.50;99.90;;;1.20;88.79;97385.41;10451122;28;2177;-77
2022/01/18 17:39:46;;;;;;;;;;;2.50;99.90;;;1.23;89.71;97387.72;10443401;28;1884;-77
2022/01/18 17:44:50;;;;;;;;;;;2.40;99.90;;;1.24;89.71;97385.91;10462174;28;1741;-76
2022/01/18 17:49:57;;;;;;;;;;;2.40;99.90;;;1.22;91.05;97382.59;10459402;28;1852;-77
2022/01/18 17:55:00;;;;;;;;;;;2.40;99.90;;;1.15;91.48;97379.84;10438354;28;1921;-75
2022/01/18 18:00:04;;;;;;;;;;;2.20;99.90;;;1.15;91.95;97393.06;10449423;28;1803;-75
2022/01/18 18:05:07;;;;;;;;;;;2.30;99.90;;;1.15;91.50;97405.50;10444071;28;1779;-74
2022/01/18 18:10:10;;;;;;;;;;;2.30;99.90;;;1.23;92.15;97389.53;10461073;28;1962;-75
2022/01/18 18:15:19;;;;;;;;;;;2.30;99.90;;;1.13;91.47;97375.69;10463196;28;1894;-74
2022/01/18 18:20:22;;;;;;;;;;;2.40;99.90;;;1.11;91.46;97369.75;10463152;28;2059;-74
2022/01/18 18:25:26;;;;;;;;;;;2.40;99.90;;;1.10;91.70;97370.75;10469988;28;1991;-74
2022/01/18 18:30:30;;;;;;;;;;;2.40;99.90;;;0.98;92.75;97365.84;10461562;28;1952;-75
2022/01/18 18:35:54;;;;;;;;;;;2.20;99.90;;;1.02;93.75;97353.09;10459731;28;1895;-75
2022/01/18 18:41:00;;;;;;;;;;;2.20;99.90;;;0.99;92.89;97364.84;10471720;28;1786;-81
2022/01/18 18:46:03;;;;;;;;;;;2.10;99.90;;;0.92;93.89;97363.91;10476381;28;1289;-80
2022/01/18 18:51:07;;;;;;;;;;;2.10;99.90;;;0.80;93.87;97349.41;10461193;28;1465;-80
2022/01/18 18:56:11;;;;;;;;;;;2.00;99.90;;;0.72;93.41;97341.50;10441866;28;1910;-76
2022/01/18 19:01:27;;;;;;;;;;;;;;;0.56;94.48;97329.16;10429526;28;1707;-77
2022/01/18 19:06:31;;;;;;;;;;;;;;;0.41;94.45;97321.13;10433373;28;1638;-76
2022/01/18 19:11:35;;;;;;;;;;;;;;;0.39;95.68;97319.66;10435647;28;1515;-76
2022/01/18 19:16:41;;;;;;;;;;;;;;;0.23;96.88;97336.41;10443347;28;1985;-79
2022/01/18 19:21:45;;;;;;;;;;;1.20;99.90;;;0.19;97.22;97343.88;10437666;28;1306;-77
2022/01/18 19:26:48;;;;;;;;;;;1.00;99.90;;;0.17;97.44;97363.53;10441379;28;1395;-74
2022/01/18 19:31:52;;;;;;;;;;;1.20;99.90;;;0.08;98.53;97364.56;10438840;28;1394;-79
2022/01/18 19:36:55;;;;;;;;;;;1.10;99.90;;;0.05;97.81;97363.06;10471226;22;3475;-69
2022/01/18 19:41:59;;;;;;;;;;;1.10;99.90;;;-0.01;98.21;97361.91;10498003;28;1349;-68
2022/01/18 19:47:03;;;;;;;;;;;1.10;99.90;;;-0.04;99.19;97356.97;10496520;28;1489;-68
2022/01/18 19:52:06;;;;;;;;;;;1.00;99.90;;;-0.12;99.37;97354.34;10500718;28;1745;-67
2022/01/18 19:57:10;;;;;;;;;;;1.10;99.90;;;-0.20;99.58;97358.81;10494252;28;2002;-67
2022/01/18 20:02:13;;;;;;;;;;;1.00;99.90;;;-0.27;100.00;97356.00;10475831;28;1633;-69
2022/01/18 20:07:17;;;;;;;;;;;;;;;-0.25;100.00;97334.69;10466299;28;1705;-68
2022/01/18 20:12:21;;;;;;;;;;;;;;;-0.37;100.00;97344.81;10479826;28;1224;-69
2022/01/18 20:17:25;;;;;;;;;;;;;;;-0.35;100.00;97340.16;10477160;28;1981;-70
2022/01/18 20:22:30;;;;;;;;;;;;;;;-0.39;100.00;97330.91;10481356;28;1254;-70
2022/01/18 20:27:36;;;;;;;;;;;0.80;99.90;;;-0.43;100.00;97330.44;10483518;28;1459;-69
2022/01/18 20:32:39;;;;;;;;;;;0.70;99.90;;;-0.41;100.00;97338.19;10486017;28;1334;-69
2022/01/18 20:37:43;;;;;;;;;;;0.90;99.90;;;-0.40;100.00;97326.63;10483594;28;1914;-68
2022/01/18 20:48:08;;;;;;;;;;;0.60;99.90;;;-0.49;99.02;97317.06;10501889;28;1444;-68
2022/01/18 20:53:13;;;;;;;;;;;0.40;99.90;;;-0.55;100.00;97315.91;10480568;28;1914;-68
2022/01/18 20:58:18;;;;;;;;;;;0.50;99.90;;;-0.56;100.00;97306.34;10470711;28;1422;-70
2022/01/18 21:03:22;;;;;;;;;;;0.50;99.90;;;-0.61;100.00;97269.84;10476880;28;1379;-71
2022/01/18 21:08:25;;;;;;;;;;;0.60;99.90;;;-0.68;99.88;97249.56;10478132;28;1526;-73
2022/01/18 21:13:29;;;;;;;;;;;0.40;99.90;;;-0.67;99.66;97245.94;10474121;28;1919;-71
2022/01/18 21:18:32;;;;;;;;;;;0.30;99.90;;;-0.70;99.29;97262.09;10471753;28;1285;-70
2022/01/18 21:23:36;;;;;;;;;;;;;;;-0.80;99.91;97270.19;10480395;28;1375;-69
2022/01/18 21:28:40;;;;;;;;;;;;;;;-0.74;99.30;97277.47;10473387;28;1594;-70
2022/01/18 21:33:44;;;;;;;;;;;;;;;-0.86;100.00;97281.41;10475359;28;1965;-71
2022/01/18 21:38:48;;;;;;;;;;;;;;;-0.88;100.00;97272.84;10467834;28;1724;-70
2022/01/18 21:43:57;;;;;;;;;;;0.20;99.90;;;-0.94;100.00;97255.03;10474103;28;1642;-71
2022/01/18 21:49:03;;;;;;;;;;;0.20;99.90;;;-0.94;100.00;97261.13;10465882;28;2045;-71
2022/01/18 21:54:08;;;;;;;;;;;0.30;99.90;;;-0.93;100.00;97239.03;10469734;28;1948;-70
2022/01/18 21:59:13;;;;;;;;;;;0.30;99.90;;;-1.00;100.00;97226.66;10482951;28;1831;-70
2022/01/18 22:04:16;;;;;;;;;;;0.20;99.90;;;-1.01;100.00;97227.66;10481822;28;1890;-70
2022/01/18 22:09:19;;;;;;;;;;;0.20;99.90;;;-1.03;100.00;97221.69;10480765;28;1820;-71
2022/01/18 22:14:22;;;;;;;;;;;0.20;99.90;;;-1.15;100.00;97214.09;10480846;28;1973;-70
2022/01/18 22:19:26;;;;;;;;;;;0.10;99.90;;;-1.13;100.00;97206.03;10489800;28;1916;-69
2022/01/18 22:24:29;;;;;;;;;;;0.10;99.90;;;-1.25;100.00;97208.19;10485204;28;1823;-71
2022/01/18 22:29:33;;;;;;;;;;;0.00;99.90;;;-1.20;100.00;97197.13;10486234;28;1843;-69
2022/01/18 22:34:36;;;;;;;;;;;0.00;99.90;;;-1.21;100.00;97187.53;10486037;28;2262;-69
2022/01/18 22:39:39;;;;;;;;;;;0.00;99.90;;;-1.27;100.00;97173.22;10494157;28;1820;-70
2022/01/18 22:44:42;;;;;;;;;;;0.00;99.90;;;-1.33;100.00;97168.63;10491804;28;1807;-70
2022/01/18 22:49:46;;;;;;;;;;;0.60;99.90;;;-1.32;100.00;97158.88;10487145;28;1916;-70
2022/01/18 22:54:50;;;;;;;;;;;-0.10;99.90;;;-1.34;100.00;97156.38;10483347;28;1921;-70
2022/01/18 22:59:53;;;;;;;;;;;-0.10;99.90;;;-1.40;100.00;97142.06;10480161;28;1906;-68
2022/01/18 23:04:57;;;;;;;;;;;-0.20;99.90;;;-1.45;100.00;97138.28;10489848;28;1851;-70
2022/01/18 23:10:00;;;;;;;;;;;-0.30;99.90;;;-1.42;100.00;97137.94;10479858;28;1852;-69
2022/01/18 23:15:04;;;;;;;;;;;-0.30;99.90;;;-1.47;100.00;97129.69;10483749;28;1977;-70
2022/01/18 23:20:08;;;;;;;;;;;-0.10;99.90;;;-1.47;100.00;97129.69;10483222;28;1875;-70
2022/01/18 23:25:11;;;;;;;;;;;-0.30;99.90;;;-1.50;100.00;97119.47;10485454;28;1774;-70
2022/01/18 23:30:15;;;;;;;;;;;-0.30;99.90;;;-1.57;100.00;97119.31;10482686;28;1951;-70
2022/01/18 23:35:19;;;;;;;;;;;-0.40;99.90;;;-1.61;100.00;97125.06;10484018;28;1910;-71
2022/01/18 23:45:43;;;;;;;;;;;-0.40;99.90;;;-1.63;100.00;97123.44;10479311;28;1966;-70
2022/01/18 23:50:47;;;;;;;;;;;-0.40;99.90;;;-1.65;100.00;97127.22;10485296;28;1808;-71
2022/01/18 23:55:50;;;;;;;;;;;-0.50;99.90;;;-1.66;100.00;97110.56;10474644;28;2174;-70
